Time;durP1;ratioP1;P1;durP2;ratioP2;P2;SDS_P1;SDS_P2;PMS_P1;PMS_P2;Temp;Humidity;BMP_temperature;BMP_pressure;BME280_temperature;BME280_humidity;BME280_pressure;Samples;Min_cycle;Max_cycle;Signal;HPM_P1;HPM_P2
2022/01/22 00:00:27;;;;;;;5.18;3.88;;;17.00;40.30;;;;;;4993124;28;20289;-68
2022/01/22 00:02:54;;;;;;;4.72;3.20;;;16.90;40.00;;;;;;4991930;28;20225;-69
2022/01/22 00:05:22;;;;;;;5.85;3.75;;;16.90;40.10;;;;;;4993293;28;20193;-69
2022/01/22 00:07:50;;;;;;;6.10;3.97;;;16.90;40.20;;;;;;4992487;28;20678;-69
2022/01/22 00:10:22;;;;;;;4.20;3.20;;;16.90;40.00;;;;;;4992066;28;20272;-70
2022/01/22 00:14:23;;;;;;;5.25;3.45;;;16.90;40.10;;;;;;4991859;28;20585;-68
2022/01/22 00:15:56;;;;;;;4.63;3.35;;;16.80;40.00;;;;;;4991823;28;20205;-68
2022/01/22 00:18:23;;;;;;;3.60;3.13;;;16.80;40.30;;;;;;4995087;28;20193;-68
2022/01/22 00:20:50;;;;;;;5.10;3.17;;;16.80;40.40;;;;;;4995814;28;20197;-71
2022/01/22 00:23:19;;;;;;;3.60;3.17;;;16.80;40.60;;;;;;4996854;28;20220;-69
2022/01/22 00:25:48;;;;;;;3.65;3.17;;;16.80;40.10;;;;;;4995713;28;20256;-69
2022/01/22 00:28:15;;;;;;;3.85;2.97;;;16.80;40.30;;;;;;4996706;28;20685;-69
2022/01/22 00:30:42;;;;;;;4.40;3.20;;;16.70;40.10;;;;;;4996647;28;20198;-70
2022/01/22 00:33:09;;;;;;;4.40;3.47;;;16.80;40.20;;;;;;4996707;28;20210;-70
2022/01/22 00:35:37;;;;;;;3.70;3.40;;;16.70;40.80;;;;;;4996396;28;20194;-67
2022/01/22 00:38:20;;;;;;;4.32;3.38;;;16.70;40.20;;;;;;4996044;28;20201;-69
2022/01/22 00:40:51;;;;;;;3.70;3.17;;;16.70;40.20;;;;;;4992741;28;20284;-67
2022/01/22 00:43:18;;;;;;;4.90;3.40;;;16.70;40.40;;;;;;4995027;28;20316;-68
2022/01/22 00:45:45;;;;;;;5.18;3.22;;;16.70;40.20;;;;;;4995325;28;20612;-71
2022/01/22 00:48:12;;;;;;;3.50;3.20;;;16.70;40.40;;;;;;4995196;28;20232;-71
2022/01/22 00:50:39;;;;;;;4.28;3.42;;;16.60;40.40;;;;;;4998682;28;20205;-70
2022/01/22 00:53:06;;;;;;;3.22;2.92;;;16.60;40.50;;;;;;4996746;28;20308;-69
2022/01/22 00:55:33;;;;;;;4.10;3.22;;;16.60;40.60;;;;;;4995954;28;20201;-71
2022/01/22 00:58:01;;;;;;;3.55;2.80;;;16.60;40.80;;;;;;4995122;28;20206;-68
2022/01/22 01:00:28;;;;;;;3.60;3.17;;;16.60;40.80;;;;;;4994810;28;20236;-68
2022/01/22 01:02:56;;;;;;;4.13;3.00;;;16.60;41.40;;;;;;4994655;28;20295;-71
2022/01/22 01:05:22;;;;;;;3.30;3.00;;;16.60;40.80;;;;;;4994651;28;20304;-69
2022/01/22 01:07:50;;;;;;;3.30;2.88;;;16.60;40.90;;;;;;4995234;28;20292;-70
2022/01/22 01:10:18;;;;;;;2.95;2.55;;;16.50;40.80;;;;;;4996196;28;20205;-69
2022/01/22 01:12:46;;;;;;;3.47;3.00;;;16.50;40.90;;;;;;4994706;28;20222;-70
2022/01/22 01:15:24;;;;;;;4.03;2.83;;;16.50;40.90;;;;;;4994283;28;20197;-71
2022/01/22 01:18:06;;;;;;;3.58;2.63;;;16.50;40.80;;;;;;4994629;28;20602;-70
2022/01/22 01:34:21;;;;;;;3.95;2.95;;;16.40;40.80;;;;;;5010490;28;20727;-68
2022/01/22 01:36:50;;;;;;;3.78;2.90;;;16.40;40.90;;;;;;4994177;28;20197;-69
2022/01/22 01:39:22;;;;;;;5.53;3.60;;;16.40;40.80;;;;;;4994233;28;20653;-68
2022/01/22 01:41:54;;;;;;;4.22;2.97;;;16.40;40.80;;;;;;4993954;28;20221;-66
2022/01/22 01:44:21;;;;;;;3.50;2.72;;;16.40;40.80;;;;;;4993948;28;20617;-68
2022/01/22 01:47:03;;;;;;;3.20;2.90;;;16.40;40.70;;;;;;4993981;28;20201;-68
2022/01/22 01:49:33;;;;;;;3.05;2.85;;;16.40;40.80;;;;;;5010260;28;20217;-66
2022/01/22 01:52:04;;;;;;;2.75;2.55;;;16.30;40.80;;;;;;4993471;28;20689;-66
2022/01/22 01:54:37;;;;;;;2.92;2.72;;;16.40;40.90;;;;;;4993643;28;20211;-70
2022/01/22 01:59:51;;;;;;;3.13;2.83;;;16.30;40.80;;;;;;5009879;28;20194;-68
2022/01/22 02:02:30;;;;;;;3.33;2.80;;;16.30;41.50;;;;;;4993416;28;20229;-68
2022/01/22 02:04:57;;;;;;;3.10;2.72;;;16.30;40.90;;;;;;4993519;28;20190;-68
2022/01/22 02:07:24;;;;;;;2.67;2.47;;;16.30;40.80;;;;;;4993361;28;20198;-68
2022/01/22 02:10:03;;;;;;;3.03;2.72;;;16.30;40.90;;;;;;4993418;28;20213;-66
2022/01/22 02:12:57;;;;;;;2.65;2.45;;;16.30;41.00;;;;;;5009701;28;20583;-68
2022/01/22 02:24:32;;;;;;;3.75;2.50;;;16.20;41.00;;;;;;5409233;23;20300;-67
2022/01/22 02:29:42;;;;;;;3.00;2.70;;;16.20;41.10;;;;;;4997862;28;20214;-68
2022/01/22 02:32:54;;;;;;;2.80;2.50;;;16.20;41.10;;;;;;4999927;28;20603;-68
2022/01/22 02:35:27;;;;;;;2.75;2.55;;;16.20;41.10;;;;;;4973817;28;20198;-70
2022/01/22 02:37:59;;;;;;;3.38;2.63;;;16.20;41.10;;;;;;4988438;28;20260;-70
2022/01/22 02:40:31;;;;;;;2.65;2.45;;;16.20;41.10;;;;;;5008969;28;20655;-67
2022/01/22 02:43:00;;;;;;;2.97;2.70;;;16.20;41.10;;;;;;4995030;28;20276;-68
2022/01/22 02:45:27;;;;;;;2.97;2.72;;;16.20;41.20;;;;;;4994679;28;20204;-68
2022/01/22 02:47:54;;;;;;;2.42;2.22;;;16.20;41.20;;;;;;4994843;28;20289;-68
2022/01/22 02:50:21;;;;;;;2.78;2.58;;;16.10;41.20;;;;;;4992683;28;20217;-70
2022/01/22 02:52:48;;;;;;;3.13;2.70;;;16.10;41.20;;;;;;4992294;28;20193;-69
2022/01/22 02:55:16;;;;;;;2.50;2.30;;;16.10;41.20;;;;;;4989294;28;20202;-67
2022/01/22 02:57:45;;;;;;;2.70;2.50;;;16.10;41.30;;;;;;4973088;28;20225;-68
2022/01/22 03:00:17;;;;;;;4.32;2.80;;;16.10;41.30;;;;;;4973316;28;20193;-67
2022/01/22 03:02:44;;;;;;;2.70;2.50;;;16.10;41.20;;;;;;4973035;28;20257;-66
2022/01/22 03:05:11;;;;;;;2.67;2.47;;;16.10;41.30;;;;;;4973132;28;20194;-67
2022/01/22 03:07:40;;;;;;;2.63;2.42;;;16.10;41.30;;;;;;4973230;28;20205;-68
2022/01/22 03:10:09;;;;;;;3.25;2.72;;;16.00;41.20;;;;;;4972972;28;20220;-70
2022/01/22 03:13:07;;;;;;;2.33;2.22;;;16.00;41.20;;;;;;4973107;28;20260;-68
2022/01/22 03:15:54;;;;;;;2.90;2.50;;;16.00;41.30;;;;;;4972946;28;20194;-68
2022/01/22 03:18:35;;;;;;;4.78;2.35;;;16.00;41.30;;;;;;4989081;28;20613;-66
2022/01/22 03:21:10;;;;;;;3.25;2.95;;;16.00;41.30;;;;;;4972803;28;20621;-67
2022/01/22 03:29:21;;;;;;;2.85;2.63;;;16.00;41.40;;;;;;4973915;28;20204;-70
2022/01/22 03:31:50;;;;;;;2.65;2.40;;;16.00;41.50;;;;;;4972758;28;20197;-67
2022/01/22 03:34:17;;;;;;;2.90;2.60;;;16.00;41.40;;;;;;4972792;28;20685;-68
2022/01/22 03:36:44;;;;;;;2.55;2.25;;;15.90;41.40;;;;;;4988854;28;20194;-68
2022/01/22 03:39:12;;;;;;;3.03;2.58;;;16.00;41.50;;;;;;4972444;28;20198;-68
2022/01/22 03:41:40;;;;;;;2.95;2.67;;;15.90;41.30;;;;;;4972636;28;20198;-69
2022/01/22 03:44:10;;;;;;;3.28;2.80;;;16.00;41.40;;;;;;4972372;28;20237;-66
2022/01/22 03:46:41;;;;;;;3.17;2.58;;;16.00;41.40;;;;;;4972392;28;20276;-70
2022/01/22 03:49:10;;;;;;;2.40;2.20;;;15.90;41.90;;;;;;4972320;28;20222;-70
2022/01/22 03:51:38;;;;;;;3.03;2.72;;;15.90;41.40;;;;;;4972418;28;20201;-68
2022/01/22 03:54:05;;;;;;;2.80;2.42;;;15.90;41.30;;;;;;4975154;28;20228;-67
2022/01/22 03:56:33;;;;;;;2.70;2.50;;;15.90;41.30;;;;;;4976277;28;20198;-68
2022/01/22 03:59:08;;;;;;;2.75;2.55;;;15.90;41.30;;;;;;4976422;28;20198;-70
2022/01/22 04:02:27;;;;;;;2.78;2.58;;;15.90;41.20;;;;;;4977702;28;20664;-66
2022/01/22 04:05:00;;;;;;;3.38;2.88;;;15.90;41.30;;;;;;4975841;28;20313;-68
2022/01/22 04:10:13;;;;;;;3.05;2.58;;;15.90;41.30;;;;;;4975647;28;20254;-67
2022/01/22 04:12:47;;;;;;;2.65;2.45;;;15.90;41.30;;;;;;4975846;28;20579;-70
2022/01/22 04:15:17;;;;;;;2.88;2.67;;;15.90;41.30;;;;;;4975877;28;20364;-69
2022/01/22 04:26:09;;;;;;;3.13;2.88;;;15.80;41.30;;;;;;4975986;28;20237;-70
2022/01/22 04:28:36;;;;;;;2.80;2.60;;;15.80;41.30;;;;;;4977233;28;20237;-67
2022/01/22 04:31:03;;;;;;;2.70;2.50;;;15.90;41.30;;;;;;4975480;28;20248;-70
2022/01/22 04:33:30;;;;;;;2.88;2.67;;;15.90;41.20;;;;;;4975951;28;20698;-68
2022/01/22 04:35:58;;;;;;;3.03;2.72;;;15.90;41.30;;;;;;4975688;28;20569;-69
2022/01/22 04:38:26;;;;;;;3.22;3.00;;;15.90;41.20;;;;;;4988435;28;20201;-70
2022/01/22 04:40:53;;;;;;;2.80;2.58;;;15.90;41.20;;;;;;5011516;28;20199;-70
2022/01/22 04:43:21;;;;;;;3.38;3.08;;;15.90;41.20;;;;;;4996727;28;20221;-70
2022/01/22 04:45:55;;;;;;;3.78;2.88;;;15.90;41.00;;;;;;5011887;28;20209;-69
2022/01/22 04:48:39;;;;;;;3.10;2.80;;;15.90;41.10;;;;;;4995740;28;20280;-69
2022/01/22 04:56:38;;;;;;;4.07;2.70;;;16.00;41.70;;;;;;4998634;28;20204;-70
2022/01/22 04:59:06;;;;;;;3.90;3.17;;;16.00;41.10;;;;;;4996288;28;20732;-69
2022/01/22 05:01:33;;;;;;;2.95;2.75;;;16.00;41.10;;;;;;4997316;28;20236;-71
2022/01/22 05:04:07;;;;;;;2.72;2.53;;;16.00;41.00;;;;;;5011216;28;20634;-70
2022/01/22 05:06:53;;;;;;;3.38;3.05;;;16.00;41.00;;;;;;5013037;28;20279;-70
2022/01/22 05:09:32;;;;;;;2.83;2.40;;;16.00;41.10;;;;;;5012171;28;20347;-69
2022/01/22 05:12:01;;;;;;;3.13;2.30;;;16.00;41.10;;;;;;4995570;28;20225;-69
2022/01/22 05:14:29;;;;;;;2.40;2.20;;;16.00;41.00;;;;;;4995197;28;20248;-70
2022/01/22 05:16:59;;;;;;;2.30;2.10;;;16.10;41.10;;;;;;4995208;28;20197;-70
2022/01/22 05:19:33;;;;;;;2.72;2.40;;;16.10;41.00;;;;;;5011405;28;20201;-70
2022/01/22 05:22:10;;;;;;;2.70;2.25;;;16.10;41.00;;;;;;5011129;28;20194;-70
2022/01/22 05:24:41;;;;;;;2.58;2.38;;;16.10;40.80;;;;;;4994726;28;20264;-69
2022/01/22 05:27:31;;;;;;;2.92;2.35;;;16.20;40.80;;;;;;5010968;28;20570;-69
2022/01/22 05:30:07;;;;;;;2.72;2.42;;;16.20;40.80;;;;;;5010976;28;20736;-70
2022/01/22 05:33:00;;;;;;;2.67;2.47;;;16.20;40.70;;;;;;4995616;28;20327;-69
2022/01/22 05:38:35;;;;;;;2.53;2.33;;;16.20;40.70;;;;;;4987394;28;20572;-71
2022/01/22 05:41:06;;;;;;;2.88;2.58;;;16.30;40.60;;;;;;5003035;28;20205;-70
2022/01/22 05:43:33;;;;;;;2.90;2.53;;;16.30;40.50;;;;;;5010934;28;20316;-66
2022/01/22 05:46:00;;;;;;;3.10;2.80;;;16.30;40.60;;;;;;5010009;28;20287;-69
2022/01/22 05:48:28;;;;;;;3.33;3.00;;;16.30;40.40;;;;;;4994628;28;20206;-69
2022/01/22 05:50:58;;;;;;;3.20;2.90;;;16.30;40.50;;;;;;5010721;28;20276;-69
2022/01/22 05:53:41;;;;;;;2.85;2.65;;;16.40;41.30;;;;;;5006571;28;20293;-71
2022/01/22 06:01:44;;;;;;;2.90;2.70;;;16.50;41.00;;;;;;4994475;28;20209;-69
2022/01/22 06:04:18;;;;;;;3.13;2.70;;;16.50;40.80;;;;;;5005079;28;20221;-70
2022/01/22 06:06:47;;;;;;;4.50;2.97;;;16.40;40.90;;;;;;5007839;28;20276;-71
2022/01/22 06:09:15;;;;;;;3.30;2.85;;;16.50;41.10;;;;;;5005599;28;20204;-69
2022/01/22 06:11:55;;;;;;;2.97;2.78;;;16.50;40.60;;;;;;5003152;28;20217;-67
2022/01/22 06:14:25;;;;;;;4.75;2.80;;;16.60;40.70;;;;;;4997333;28;20217;-69
2022/01/22 06:16:53;;;;;;;3.58;2.90;;;16.60;40.80;;;;;;4993132;28;20244;-71
2022/01/22 06:19:28;;;;;;;3.47;2.90;;;16.60;40.70;;;;;;4994946;28;20193;-69
2022/01/22 06:21:55;;;;;;;3.80;3.08;;;16.60;40.70;;;;;;4993490;28;20205;-70
2022/01/22 06:24:23;;;;;;;2.88;2.60;;;16.60;41.00;;;;;;4993649;28;20225;-70
2022/01/22 06:26:53;;;;;;;3.95;3.05;;;16.70;40.60;;;;;;4993394;28;20209;-69
2022/01/22 06:29:20;;;;;;;4.05;3.10;;;16.70;40.40;;;;;;4993433;28;20220;-69
2022/01/22 06:31:48;;;;;;;4.32;2.70;;;16.70;40.50;;;;;;4993247;28;20263;-69
2022/01/22 06:34:16;;;;;;;3.03;2.78;;;16.70;40.40;;;;;;4993335;28;20229;-69
2022/01/22 06:36:44;;;;;;;2.60;2.40;;;16.70;40.40;;;;;;4993064;28;20216;-70
2022/01/22 06:39:13;;;;;;;3.10;2.80;;;16.70;40.40;;;;;;4993060;28;20197;-69
2022/01/22 06:42:00;;;;;;;3.28;2.67;;;16.70;40.20;;;;;;4994206;28;20204;-69
2022/01/22 06:44:45;;;;;;;2.90;2.70;;;16.70;40.20;;;;;;4994452;28;20262;-67
2022/01/22 06:47:32;;;;;;;3.22;2.90;;;16.70;40.30;;;;;;4994403;28;20196;-69
2022/01/22 06:50:15;;;;;;;3.22;2.92;;;16.70;40.20;;;;;;4992794;28;20337;-70
2022/01/22 06:53:07;;;;;;;2.67;2.47;;;16.70;40.10;;;;;;4994383;28;20225;-71
2022/01/22 06:55:52;;;;;;;2.83;2.55;;;16.70;40.00;;;;;;4992766;28;20644;-70
2022/01/22 06:58:21;;;;;;;3.75;2.75;;;16.80;40.00;;;;;;4992608;28;20226;-71
2022/01/22 07:00:55;;;;;;;3.00;2.70;;;16.80;39.90;;;;;;4992613;28;20280;-71
2022/01/22 07:03:24;;;;;;;3.40;3.10;;;16.80;39.90;;;;;;4992182;28;20224;-68
2022/01/22 07:06:05;;;;;;;2.95;2.75;;;16.80;39.80;;;;;;4992425;28;20220;-67
2022/01/22 07:08:34;;;;;;;3.30;2.80;;;16.80;39.70;;;;;;4992393;28;20194;-70
2022/01/22 07:11:03;;;;;;;3.00;2.70;;;16.80;39.70;;;;;;4992300;28;20213;-68
2022/01/22 07:13:34;;;;;;;3.13;2.83;;;16.80;39.70;;;;;;4992162;28;20223;-68
2022/01/22 07:16:01;;;;;;;3.05;2.65;;;16.80;39.70;;;;;;4992170;28;20685;-68
2022/01/22 07:18:30;;;;;;;3.05;2.75;;;16.80;39.70;;;;;;4992227;28;20202;-70
2022/01/22 07:21:03;;;;;;;2.90;2.60;;;16.80;39.70;;;;;;4992391;28;20189;-69
2022/01/22 07:23:57;;;;;;;3.05;2.85;;;16.80;39.60;;;;;;4992308;28;20548;-69
2022/01/22 07:26:26;;;;;;;2.78;2.58;;;16.80;39.70;;;;;;4992193;28;20569;-68
2022/01/22 07:29:15;;;;;;;2.70;2.50;;;16.90;39.60;;;;;;4996774;28;20224;-70
2022/01/22 07:31:43;;;;;;;3.10;2.80;;;16.90;39.80;;;;;;4996520;28;20704;-70
2022/01/22 07:34:12;;;;;;;2.65;2.45;;;16.90;39.70;;;;;;4997224;28;20647;-69
2022/01/22 07:36:39;;;;;;;2.90;2.60;;;16.90;39.70;;;;;;4996436;28;20744;-67
2022/01/22 07:39:06;;;;;;;3.08;2.78;;;16.90;39.80;;;;;;4996654;28;20229;-67
2022/01/22 07:41:40;;;;;;;3.03;2.58;;;16.90;39.60;;;;;;4996655;28;20202;-68
2022/01/22 07:44:29;;;;;;;3.00;2.72;;;16.90;39.70;;;;;;4997533;28;20719;-69
2022/01/22 07:46:56;;;;;;;3.10;2.80;;;16.90;39.60;;;;;;4996402;28;20209;-67
2022/01/22 07:49:26;;;;;;;3.30;2.53;;;16.90;39.60;;;;;;4996230;28;20236;-69
2022/01/22 07:51:59;;;;;;;3.05;2.78;;;16.90;39.60;;;;;;4996294;28;20213;-71
2022/01/22 07:54:27;;;;;;;3.55;2.92;;;16.90;39.60;;;;;;4996819;28;20213;-69
2022/01/22 07:56:57;;;;;;;3.25;2.55;;;17.00;39.70;;;;;;4997299;28;20244;-68
2022/01/22 07:59:24;;;;;;;3.25;2.85;;;17.00;39.70;;;;;;4996375;28;20614;-69
2022/01/22 08:01:54;;;;;;;3.45;2.90;;;17.00;39.70;;;;;;4996371;28;20198;-70
2022/01/22 08:04:24;;;;;;;3.47;3.17;;;17.00;39.70;;;;;;4997609;28;20229;-67
2022/01/22 08:07:10;;;;;;;2.58;2.38;;;17.00;39.50;;;;;;4997691;28;20187;-68
2022/01/22 08:09:57;;;;;;;3.08;2.78;;;17.00;39.60;;;;;;4997357;28;20543;-69
2022/01/22 08:12:31;;;;;;;3.30;2.95;;;17.00;39.60;;;;;;4995883;28;20197;-68
2022/01/22 08:15:05;;;;;;;3.90;3.00;;;17.00;39.50;;;;;;4995831;28;20696;-69
2022/01/22 08:17:34;;;;;;;3.58;2.72;;;17.00;39.60;;;;;;4995844;28;20572;-69
2022/01/22 08:20:01;;;;;;;3.53;3.20;;;17.10;39.70;;;;;;4995524;28;20644;-71
2022/01/22 08:22:57;;;;;;;3.30;3.00;;;17.00;39.50;;;;;;4996533;28;20667;-68
2022/01/22 08:26:04;;;;;;;3.38;3.00;;;17.10;39.70;;;;;;5014140;28;20200;-70
2022/01/22 08:28:58;;;;;;;3.40;3.10;;;17.00;39.50;;;;;;5011654;28;20202;-69
2022/01/22 08:31:39;;;;;;;3.17;2.88;;;17.10;39.70;;;;;;4994857;28;20297;-67
2022/01/22 08:36:57;;;;;;;3.58;3.28;;;17.10;39.70;;;;;;4994800;28;20185;-68
2022/01/22 08:39:24;;;;;;;3.00;2.70;;;17.10;39.70;;;;;;4994670;28;20220;-67
2022/01/22 08:41:52;;;;;;;3.40;3.05;;;17.10;39.50;;;;;;4994809;28;20248;-70
2022/01/22 08:44:19;;;;;;;3.50;3.00;;;17.10;39.50;;;;;;4994968;28;20279;-70
2022/01/22 08:46:47;;;;;;;3.60;3.15;;;17.10;39.50;;;;;;4994996;28;20198;-66
2022/01/22 08:49:16;;;;;;;3.70;3.40;;;17.10;39.40;;;;;;4994763;28;20618;-71
2022/01/22 08:51:48;;;;;;;3.50;3.20;;;17.10;39.50;;;;;;4994843;28;20214;-67
2022/01/22 08:54:15;;;;;;;3.45;3.15;;;17.10;39.50;;;;;;4994594;28;20264;-71
2022/01/22 08:56:43;;;;;;;3.55;3.20;;;17.10;39.50;;;;;;4994754;28;20205;-67
2022/01/22 08:59:11;;;;;;;4.75;3.33;;;17.10;39.50;;;;;;4994573;28;20213;-69
2022/01/22 09:01:41;;;;;;;3.20;2.90;;;17.20;39.50;;;;;;4994556;28;20185;-70
2022/01/22 09:04:27;;;;;;;2.92;2.70;;;17.20;39.60;;;;;;4994738;28;20221;-70
2022/01/22 09:07:29;;;;;;;3.55;2.67;;;17.20;39.60;;;;;;5000845;28;20630;-71
2022/01/22 09:10:15;;;;;;;3.80;3.45;;;17.20;40.20;;;;;;4996260;28;20185;-71
2022/01/22 09:13:02;;;;;;;3.85;3.47;;;17.20;39.50;;;;;;4995466;28;20217;-67
2022/01/22 09:15:42;;;;;;;5.03;3.42;;;17.20;39.40;;;;;;4994276;28;20233;-67
2022/01/22 09:18:09;;;;;;;3.28;3.00;;;17.20;39.50;;;;;;4994287;28;20197;-67
2022/01/22 09:21:01;;;;;;;3.58;3.28;;;17.20;39.60;;;;;;4994193;28;20229;-69
2022/01/22 09:23:30;;;;;;;3.60;3.30;;;17.20;39.60;;;;;;4994082;28;20229;-69
2022/01/22 09:25:58;;;;;;;3.58;3.28;;;17.20;39.60;;;;;;4994353;28;20224;-69
2022/01/22 09:28:26;;;;;;;3.42;3.17;;;17.20;39.60;;;;;;4993934;28;20684;-70
2022/01/22 09:30:58;;;;;;;3.53;3.20;;;17.20;39.70;;;;;;4993872;28;20220;-69
2022/01/22 09:33:26;;;;;;;3.30;3.00;;;17.20;39.60;;;;;;4993725;28;20760;-70
2022/01/22 09:36:15;;;;;;;4.00;3.65;;;17.20;39.70;;;;;;4994906;28;20198;-68
2022/01/22 09:38:51;;;;;;;3.72;3.28;;;17.20;39.70;;;;;;4995161;28;20264;-69
2022/01/22 09:41:28;;;;;;;3.95;3.00;;;17.20;39.70;;;;;;4994877;28;20177;-69
2022/01/22 09:44:14;;;;;;;3.85;3.55;;;17.20;39.70;;;;;;4995195;28;20236;-70
2022/01/22 09:47:08;;;;;;;3.20;2.90;;;17.20;40.30;;;;;;4993812;28;20244;-69
2022/01/22 09:49:45;;;;;;;3.88;3.53;;;17.20;39.70;;;;;;4993609;28;20355;-69
2022/01/22 09:52:19;;;;;;;3.88;3.47;;;17.20;40.30;;;;;;4994363;28;20292;-71
2022/01/22 09:55:02;;;;;;;2.95;2.75;;;17.20;39.70;;;;;;4993177;28;20279;-67
2022/01/22 09:57:48;;;;;;;3.60;3.30;;;17.20;39.80;;;;;;4995039;28;20185;-70
2022/01/22 10:00:34;;;;;;;3.72;3.42;;;17.20;39.70;;;;;;4994675;28;20283;-69
2022/01/22 10:03:15;;;;;;;3.67;3.38;;;17.20;39.70;;;;;;4993348;28;20216;-69
2022/01/22 10:05:45;;;;;;;3.95;3.58;;;17.20;39.70;;;;;;4993350;28;20627;-68
2022/01/22 10:08:34;;;;;;;3.45;3.05;;;17.20;39.70;;;;;;4994883;28;20208;-71
2022/01/22 10:11:27;;;;;;;3.72;3.42;;;17.30;39.70;;;;;;4993489;28;20252;-71
2022/01/22 10:14:17;;;;;;;3.70;3.40;;;17.30;39.70;;;;;;4996476;28;20307;-71
2022/01/22 10:16:44;;;;;;;4.28;3.85;;;17.30;39.80;;;;;;4993312;28;20254;-69
2022/01/22 10:19:16;;;;;;;3.38;3.08;;;17.30;39.70;;;;;;4992930;28;20301;-69
2022/01/22 10:21:44;;;;;;;3.75;3.45;;;17.30;39.70;;;;;;4993071;28;20198;-71
2022/01/22 10:24:42;;;;;;;3.67;3.38;;;17.30;39.60;;;;;;4993300;28;20731;-67
2022/01/22 10:27:31;;;;;;;3.08;2.78;;;17.30;39.60;;;;;;4949387;28;20307;-68
2022/01/22 10:30:00;;;;;;;3.30;3.10;;;17.30;39.70;;;;;;4992779;28;20193;-71
2022/01/22 10:32:38;;;;;;;3.17;2.88;;;17.30;39.70;;;;;;4992915;28;20213;-70
2022/01/22 10:35:24;;;;;;;3.53;3.10;;;17.30;39.70;;;;;;4994413;28;20185;-68
2022/01/22 10:38:11;;;;;;;3.40;3.10;;;17.30;39.60;;;;;;4994254;28;20297;-70
2022/01/22 10:40:40;;;;;;;4.15;3.13;;;17.40;39.60;;;;;;4992669;28;20673;-70
2022/01/22 10:43:15;;;;;;;4.53;3.40;;;17.30;39.50;;;;;;4992851;28;20236;-70
2022/01/22 10:45:43;;;;;;;4.47;3.45;;;17.40;39.50;;;;;;4993181;28;20205;-70
2022/01/22 10:48:14;;;;;;;3.00;2.80;;;17.40;39.60;;;;;;4993733;28;20201;-69
2022/01/22 10:50:41;;;;;;;3.50;3.20;;;17.40;39.60;;;;;;4994512;28;20276;-68
2022/01/22 10:53:09;;;;;;;3.50;3.13;;;17.40;39.50;;;;;;4992843;28;20237;-70
2022/01/22 10:55:52;;;;;;;3.00;2.80;;;17.40;39.50;;;;;;4992672;28;20276;-69
2022/01/22 10:58:21;;;;;;;3.30;2.85;;;17.50;39.70;;;;;;4993695;28;20200;-70
2022/01/22 11:00:58;;;;;;;3.10;2.90;;;17.40;39.50;;;;;;4992615;28;20197;-69
2022/01/22 11:03:26;;;;;;;3.53;2.90;;;17.50;40.20;;;;;;4991983;28;20239;-69
2022/01/22 11:05:53;;;;;;;3.10;2.90;;;17.50;39.60;;;;;;4992358;28;20229;-70
2022/01/22 11:08:20;;;;;;;3.60;2.80;;;17.50;39.30;;;;;;4993887;28;20567;-69
2022/01/22 11:10:47;;;;;;;3.40;3.13;;;17.50;39.30;;;;;;4992534;28;20639;-68
2022/01/22 11:13:14;;;;;;;3.45;3.15;;;17.50;39.30;;;;;;4993405;28;20588;-68
2022/01/22 11:15:43;;;;;;;3.28;2.97;;;17.50;39.40;;;;;;4992209;28;20193;-70
2022/01/22 11:18:11;;;;;;;3.15;2.95;;;17.50;39.30;;;;;;4992378;28;20198;-68
2022/01/22 11:20:38;;;;;;;3.10;2.90;;;17.50;39.30;;;;;;4993503;28;20546;-68
2022/01/22 11:23:04;;;;;;;3.20;2.90;;;17.60;39.30;;;;;;4991859;28;20264;-67
2022/01/22 11:25:32;;;;;;;3.70;3.30;;;17.50;39.30;;;;;;4993293;28;20196;-69
2022/01/22 11:27:59;;;;;;;2.85;2.63;;;17.50;39.30;;;;;;4993388;28;20265;-69
2022/01/22 11:30:27;;;;;;;2.80;2.60;;;17.60;39.40;;;;;;4992107;28;20624;-70
2022/01/22 11:32:58;;;;;;;3.42;3.13;;;17.60;39.40;;;;;;4991966;28;20591;-71
2022/01/22 11:35:33;;;;;;;3.22;2.92;;;17.60;39.30;;;;;;4991906;28;20197;-69
2022/01/22 11:38:05;;;;;;;3.75;2.80;;;17.60;39.40;;;;;;4993142;28;20177;-69
2022/01/22 11:40:34;;;;;;;3.38;3.05;;;17.60;39.40;;;;;;4992029;28;20194;-68
2022/01/22 11:43:05;;;;;;;3.63;2.70;;;17.60;39.40;;;;;;4992005;28;20221;-67
2022/01/22 11:45:34;;;;;;;3.67;3.38;;;17.60;39.40;;;;;;4991912;28;20216;-68
2022/01/22 11:48:16;;;;;;;3.55;3.25;;;17.60;39.30;;;;;;4992043;28;20205;-71
2022/01/22 11:50:44;;;;;;;4.53;3.40;;;17.60;39.30;;;;;;4991983;28;20194;-69
2022/01/22 11:53:25;;;;;;;3.85;3.55;;;17.60;39.50;;;;;;4991854;28;20232;-67
2022/01/22 11:56:26;;;;;;;4.78;3.92;;;17.60;40.00;;;;;;4993099;28;20548;-70
2022/01/22 11:59:18;;;;;;;3.25;2.97;;;17.60;39.30;;;;;;4917356;29;20290;-67
2022/01/22 12:01:57;;;;;;;2.90;2.60;;;17.60;39.30;;;;;;4989859;28;20605;-69
2022/01/22 12:04:26;;;;;;;3.67;3.38;;;17.60;39.30;;;;;;4993045;28;20205;-67
2022/01/22 12:07:12;;;;;;;2.80;2.60;;;17.70;39.40;;;;;;4993025;28;20204;-70
2022/01/22 12:09:50;;;;;;;3.13;2.53;;;17.70;39.40;;;;;;4993024;28;20287;-68
2022/01/22 12:15:12;;;;;;;2.75;2.55;;;17.70;39.50;;;;;;4996539;28;20204;-71
2022/01/22 12:18:00;;;;;;;2.60;2.40;;;17.70;39.40;;;;;;4998074;28;20249;-70
2022/01/22 12:23:55;;;;;;;2.92;2.60;;;17.70;39.40;;;;;;4986830;28;20307;-69
2022/01/22 12:26:49;;;;;;;2.97;2.67;;;17.70;39.40;;;;;;4995371;28;20210;-71
2022/01/22 12:29:36;;;;;;;2.85;2.63;;;17.70;39.40;;;;;;4983412;28;20213;-71
2022/01/22 12:32:18;;;;;;;3.13;2.90;;;17.70;39.30;;;;;;4995425;28;20221;-68
2022/01/22 12:34:53;;;;;;;3.03;2.60;;;17.70;39.20;;;;;;4996655;28;20220;-67
2022/01/22 12:37:21;;;;;;;3.10;2.60;;;17.80;39.30;;;;;;4996177;28;20251;-68
2022/01/22 12:39:51;;;;;;;3.00;2.70;;;17.70;39.20;;;;;;4996307;28;20218;-68
2022/01/22 12:42:27;;;;;;;2.85;2.65;;;17.80;39.30;;;;;;4995561;28;20212;-70
2022/01/22 12:44:58;;;;;;;2.80;2.60;;;17.80;39.30;;;;;;4996408;28;20217;-69
2022/01/22 12:47:32;;;;;;;2.33;2.17;;;17.80;39.20;;;;;;4995719;28;20189;-71
2022/01/22 12:50:02;;;;;;;2.50;2.30;;;17.80;39.20;;;;;;4987216;28;20756;-70
2022/01/22 12:52:33;;;;;;;2.72;2.50;;;17.80;39.30;;;;;;4989076;28;20214;-69
2022/01/22 12:55:00;;;;;;;3.17;2.75;;;17.80;39.10;;;;;;4999224;28;20218;-69
2022/01/22 12:57:30;;;;;;;3.03;2.30;;;17.80;39.20;;;;;;4994668;28;20210;-70
2022/01/22 13:00:05;;;;;;;2.05;1.92;;;17.80;39.30;;;;;;4978107;28;20225;-70
2022/01/22 13:02:45;;;;;;;2.88;2.58;;;17.80;39.50;;;;;;4977133;28;20574;-70
2022/01/22 13:05:13;;;;;;;3.95;2.40;;;17.80;39.30;;;;;;4976656;28;20280;-70
2022/01/22 13:08:28;;;;;;;3.13;2.40;;;17.80;39.50;;;;;;4987984;28;20206;-68
2022/01/22 13:11:08;;;;;;;3.35;2.40;;;17.90;39.60;;;;;;4996920;28;20232;-69
2022/01/22 13:13:36;;;;;;;3.03;2.40;;;17.90;39.60;;;;;;5004597;28;20236;-70
2022/01/22 13:16:06;;;;;;;3.13;2.30;;;17.80;39.50;;;;;;5012126;28;20201;-70
2022/01/22 13:19:14;;;;;;;6.30;2.65;;;17.80;39.70;;;;;;5009358;28;20198;-70
2022/01/22 13:21:51;;;;;;;7.80;2.47;;;17.90;39.60;;;;;;4996633;28;20698;-69
2022/01/22 13:24:46;;;;;;;2.55;2.30;;;17.90;39.60;;;;;;4994926;28;20399;-71
2022/01/22 13:27:16;;;;;;;3.58;2.47;;;17.90;39.60;;;;;;4993708;28;20731;-71
2022/01/22 13:29:52;;;;;;;5.05;2.80;;;17.90;39.60;;;;;;4995423;28;20202;-71
2022/01/22 13:32:26;;;;;;;2.58;2.38;;;17.90;39.60;;;;;;4994424;28;20617;-69
2022/01/22 13:35:13;;;;;;;3.85;2.70;;;18.00;39.90;;;;;;4996174;28;20216;-71
2022/01/22 13:48:50;;;;;;;4.05;2.75;;;18.00;39.80;;;;;;5014353;28;20176;-65
2022/01/22 13:51:17;;;;;;;3.70;2.58;;;17.90;39.60;;;;;;5014152;28;20244;-64
2022/01/22 13:53:46;;;;;;;3.70;2.70;;;18.00;39.70;;;;;;5012547;28;20308;-62
2022/01/22 13:56:17;;;;;;;3.72;2.60;;;18.00;39.70;;;;;;5011769;28;20209;-64
2022/01/22 13:58:44;;;;;;;3.17;2.88;;;18.00;39.70;;;;;;5014217;28;20174;-63
2022/01/22 14:01:30;;;;;;;3.10;2.70;;;18.00;39.90;;;;;;5013996;28;20728;-64
2022/01/22 14:04:08;;;;;;;2.95;2.70;;;18.00;39.90;;;;;;5014181;28;20181;-65
2022/01/22 14:06:36;;;;;;;4.38;2.50;;;18.00;39.70;;;;;;5014206;28;20193;-64
2022/01/22 14:09:13;;;;;;;4.20;2.63;;;17.90;40.10;;;;;;5013994;28;20196;-63
2022/01/22 14:12:11;;;;;;;2.60;2.40;;;18.00;40.00;;;;;;5012737;28;20228;-65
2022/01/22 14:15:01;;;;;;;3.67;2.50;;;18.00;40.00;;;;;;5013957;28;20551;-64
2022/01/22 14:17:32;;;;;;;3.85;2.72;;;18.00;40.20;;;;;;5008702;28;20627;-63
2022/01/22 14:20:04;;;;;;;2.60;2.38;;;18.00;39.90;;;;;;5008497;28;20205;-64
2022/01/22 14:22:35;;;;;;;3.28;2.90;;;18.10;39.80;;;;;;4993819;28;20296;-63
2022/01/22 14:25:12;;;;;;;4.38;2.40;;;18.10;39.80;;;;;;4994228;28;20296;-63
2022/01/22 14:27:40;;;;;;;5.10;2.38;;;18.10;39.80;;;;;;5000598;28;20192;-63
2022/01/22 14:30:08;;;;;;;2.90;2.63;;;18.10;39.60;;;;;;5012223;28;20196;-63
2022/01/22 14:32:35;;;;;;;2.40;2.20;;;18.10;39.60;;;;;;5013137;28;20295;-64
2022/01/22 14:35:02;;;;;;;2.90;2.70;;;18.10;39.50;;;;;;5013350;28;20277;-63
2022/01/22 14:37:31;;;;;;;3.72;3.03;;;18.10;39.70;;;;;;5013205;28;20635;-64
2022/01/22 14:45:30;;;;;;;3.55;3.00;;;18.10;39.60;;;;;;5011956;28;20281;-64
2022/01/22 14:47:59;;;;;;;3.67;2.60;;;18.10;39.50;;;;;;5013545;28;20207;-64